Data for 02/20/2014

Time Sea-Level Adjusted Pressure Absolute Pressure Temperature Relative Humidity Dew Point   
(mb) (inHg) (mb) (inHg) (C) (F) (%) (C) (F)
00:05 1013 29.91 843 24.89 -4.1 24.7 59 -10.9 12.3
00:10 1013 29.91 843 24.89 -4 24.7 60 -10.8 12.6
00:15 1014 29.94 843 24.89 -4 24.7 62 -10.3 13.4
00:20 1014 29.94 843 24.89 -4.2 24.5 64 -9.9 14.2
00:25 1014 29.94 843 24.89 -4.4 24.1 68 -9.5 14.9
00:30 1014 29.94 843 24.89 -4.4 24 65 -10.1 13.7
00:35 1014 29.94 843 24.89 -4.3 24.2 63 -10.4 13.4
00:40 1014 29.94 843 24.89 -4.5 23.9 76 -8.1 17.4
00:45 1014 29.94 843 24.89 -5 23 79 -8.1 17.5
00:50 1014 29.94 843 24.89 -5.1 22.8 80 -8 17.6
00:55 1014 29.94 843 24.89 -5.2 22.6 81 -8 17.7
01:00 1014 29.94 843 24.89 -5.4 22.3 82 -7.9 17.7
01:05 1014 29.94 843 24.89 -5.4 22.3 82 -7.9 17.7
01:10 1014 29.94 843 24.89 -5.2 22.6 78 -8.5 16.7
01:15 1014 29.94 843 24.89 -5.1 22.9 74 -9 15.7
01:20 1014 29.94 843 24.89 -4.8 23.3 67 -10 13.9
01:25 1014 29.94 843 24.89 -4.7 23.5 63 -10.7 12.8
01:30 1014 29.94 844 24.92 -4.6 23.7 62 -10.9 12.4
01:35 1014 29.94 844 24.92 -4.6 23.7 61 -11.1 12.1
01:40 1014 29.94 844 24.92 -4.6 23.8 60 -11.2 11.8
01:45 1014 29.94 844 24.92 -4.5 23.9 59 -11.5 11.4
01:50 1014 29.94 844 24.92 -4.5 23.9 59 -11.4 11.4
01:55 1015 29.97 844 24.92 -4.6 23.8 58 -11.5 11.2
02:00 1015 29.97 844 24.92 -4.6 23.7 58 -11.6 11.1
02:05 1015 29.97 844 24.92 -4.7 23.6 59 -11.6 11.2
02:10 1015 29.97 844 24.92 -4.8 23.3 60 -11.5 11.3
02:15 1015 29.97 844 24.92 -4.9 23.2 60 -11.5 11.3
02:20 1015 29.97 844 24.92 -4.9 23.2 60 -11.6 11.2
02:25 1015 29.97 844 24.92 -4.9 23.2 60 -11.5 11.2
02:30 1015 29.97 844 24.92 -4.9 23.1 60 -11.6 11.1
02:35 1015 29.97 844 24.92 -4.9 23.2 55 -12.6 9.3
02:40 1015 29.97 844 24.92 -4.8 23.4 53 -12.9 8.8
02:45 1015 29.97 844 24.92 -4.7 23.5 52 -13.1 8.5
02:50 1015 29.97 844 24.92 -4.8 23.3 53 -13.1 8.5
02:55 1015 29.97 844 24.92 -4.9 23.2 53 -12.9 8.7
03:00 1015 29.97 844 24.92 -5 23 54 -13 8.6
03:05 1015 29.97 844 24.92 -5.2 22.7 54 -13.1 8.4
03:10 1015 29.97 844 24.92 -5.2 22.7 52 -13.5 7.8
03:15 1015 29.97 844 24.92 -5.1 22.9 51 -13.8 7.1
03:20 1015 29.97 845 24.95 -4.9 23.1 51 -13.7 7.3
03:25 1015 29.97 845 24.95 -4.9 23.2 51 -13.6 7.5
03:30 1015 29.97 845 24.95 -4.8 23.3 51 -13.6 7.5
03:35 1016 30 845 24.95 -4.8 23.3 51 -13.5 7.7
03:40 1016 30 845 24.95 -4.8 23.3 51 -13.4 7.8
03:45 1016 30 845 24.95 -4.9 23.2 52 -13.4 7.9
03:50 1016 30 845 24.95 -4.9 23.1 52 -13.4 8
03:55 1016 30 845 24.95 -4.9 23.1 52 -13.5 7.7
04:00 1016 30 845 24.95 -4.9 23.1 52 -13.4 7.9
04:05 1016 30 845 24.95 -4.9 23.2 52 -13.3 8
04:10 1016 30 845 24.95 -4.9 23.2 52 -13.2 8.2
04:15 1016 30 845 24.95 -4.9 23.1 52 -13.4 7.9
04:20 1016 30 845 24.95 -5 23 53 -13.2 8.2
04:25 1016 30 845 24.95 -5 23 53 -13.2 8.2
04:30 1016 30 845 24.95 -5 22.9 53 -13.3 8.1
04:35 1016 30 845 24.95 -5.1 22.9 54 -13 8.7
04:40 1016 30 845 24.95 -5.2 22.7 54 -13.1 8.5
04:45 1016 30 845 24.95 -5.3 22.5 54 -13.3 8
04:50 1016 30 845 24.95 -5.3 22.5 53 -13.6 7.6
04:55 1016 30 845 24.95 -5.3 22.5 52 -13.7 7.4
05:00 1016 30 845 24.95 -5.3 22.5 52 -13.7 7.3
05:05 1016 30 845 24.95 -5.3 22.4 53 -13.6 7.6
05:10 1016 30 845 24.95 -5.4 22.2 54 -13.3 8
05:15 1016 30 846 24.98 -5.6 21.9 54 -13.4 7.9
05:20 1016 30 845 24.95 -5.7 21.8 53 -13.7 7.3
05:25 1016 30 845 24.95 -5.7 21.7 53 -13.8 7.1
05:30 1016 30 846 24.98 -5.7 21.7 52 -14 6.8
05:35 1016 30 846 24.98 -5.7 21.7 53 -13.9 6.9
05:40 1016 30 846 24.98 -5.8 21.6 52 -14.1 6.6
05:45 1016 30 846 24.98 -5.8 21.6 52 -14.2 6.5
05:50 1016 30 846 24.98 -5.8 21.6 52 -14.2 6.5
05:55 1016 30 846 24.98 -5.7 21.7 51 -14.3 6.2
06:00 1016 30 846 24.98 -5.7 21.7 51 -14.4 6.1
06:05 1017 30.03 846 24.98 -5.8 21.5 52 -14.3 6.3
06:10 1017 30.03 846 24.98 -6 21.3 53 -14.1 6.6
06:15 1016 30 846 24.98 -6 21.2 52 -14.3 6.3
06:20 1016 30 846 24.98 -6 21.2 53 -14.1 6.6
06:25 1017 30.03 846 24.98 -6 21.2 52 -14.3 6.3
06:30 1017 30.03 846 24.98 -6 21.1 52 -14.4 6.2
06:35 1017 30.03 846 24.98 -6 21.1 52 -14.5 5.9
06:40 1017 30.03 846 24.98 -5.9 21.4 52 -14.3 6.2
06:45 1017 30.03 846 24.98 -5.7 21.8 51 -14.3 6.3
06:50 1017 30.03 846 24.98 -5.6 22 51 -14.3 6.3
06:55 1017 30.03 846 24.98 -5.6 22 51 -14.1 6.6
07:00 1017 30.03 846 24.98 -5.6 21.9 52 -14.1 6.7
07:05 1017 30.03 846 24.98 -5.5 22 52 -13.9 6.9
07:10 1017 30.03 846 24.98 -5.6 21.9 53 -13.8 7.2
07:15 1017 30.03 846 24.98 -5.6 21.9 54 -13.6 7.5
07:20 1017 30.03 846 24.98 -5.6 21.9 54 -13.6 7.6
07:25 1017 30.03 846 24.98 -5.5 22 53 -13.6 7.5
07:30 1017 30.03 846 24.98 -5.4 22.2 53 -13.6 7.6
07:35 1017 30.03 846 24.98 -5.4 22.3 53 -13.4 7.8
07:40 1017 30.03 846 24.98 -5.4 22.3 54 -13.3 8.1
07:45 1017 30.03 846 24.98 -5.4 22.3 54 -13.2 8.2
07:50 1017 30.03 846 24.98 -5.4 22.2 55 -13.2 8.3
07:55 1017 30.03 846 24.98 -5.4 22.2 54 -13.3 8.1
08:00 1017 30.03 846 24.98 -5.4 22.3 53 -13.4 7.8
08:05 1017 30.03 846 24.98 -5.3 22.4 52 -13.7 7.4
08:10 1017 30.03 846 24.98 -5.3 22.4 52 -13.8 7.2
08:15 1017 30.03 846 24.98 -5.3 22.5 54 -13.2 8.2
08:20 1017 30.03 846 24.98 -5.3 22.4 55 -13 8.6
08:25 1017 30.03 846 24.98 -5.4 22.2 56 -13 8.6
08:30 1017 30.03 846 24.98 -5.5 22.1 54 -13.5 7.8
08:35 1017 30.03 846 24.98 -5.5 22 54 -13.5 7.7
08:40 1017 30.03 846 24.98 -5.6 22 54 -13.4 7.9
08:45 1017 30.03 846 24.98 -5.6 21.8 55 -13.4 7.9
08:50 1017 30.03 846 24.98 -5.7 21.8 54 -13.6 7.5
08:55 1017 30.03 846 24.98 -5.7 21.7 52 -14 6.8
09:00 1017 30.03 846 24.98 -5.6 21.9 49 -14.6 5.7
09:05 1016 30 846 24.98 -5.5 22.1 48 -14.7 5.5
09:10 1016 30 846 24.98 -5.4 22.3 48 -14.7 5.6
09:15 1016 30 846 24.98 -5.4 22.2 47 -15 5.1
09:20 1016 30 846 24.98 -5.4 22.3 48 -14.8 5.3
09:25 1016 30 846 24.98 -5.3 22.5 47 -15 5.1
09:30 1016 30 846 24.98 -5 22.9 45 -15.2 4.6
09:35 1016 30 846 24.98 -4.5 23.9 43 -15.3 4.4
09:40 1016 30 846 24.98 -4.4 24 44 -15 5
09:45 1016 30 846 24.98 -4 24.8 40 -15.6 3.9
09:50 1016 30 846 24.98 -4 24.9 40 -15.6 3.9
09:55 1016 30 846 24.98 -4.2 24.4 40 -15.8 3.6
10:00 1016 30 846 24.98 -4.2 24.5 40 -16 3.2
10:05 1016 30 846 24.98 -4.2 24.4 38 -16.4 2.5
10:10 1016 30 846 24.98 -3.7 25.3 39 -15.9 3.4
10:15 1016 30 846 24.98 -3.8 25.2 40 -15.6 3.9
10:20 1016 30 846 24.98 -4.1 24.6 39 -16 3.2
10:25 1016 30 845 24.95 -4.2 24.5 40 -15.8 3.5
10:30 1016 30 845 24.95 -4.1 24.6 41 -15.5 4
10:35 1016 30 845 24.95 -3.5 25.7 38 -16 3.3
10:40 1016 30 845 24.95 -3.3 26.1 37 -16.1 3.1
10:45 1016 30 845 24.95 -3.4 25.8 37 -16 3.1
10:50 1016 30 845 24.95 -3.4 26 38 -15.6 3.9
10:55 1016 30 845 24.95 -3.1 26.4 38 -15.6 3.8
11:00 1016 30 845 24.95 -2.7 27.2 37 -15.5 4.1
11:05 1016 30 845 24.95 -2.4 27.7 41 -14.1 6.7
11:10 1016 30 845 24.95 -2.6 27.4 39 -14.7 5.6
11:15 1016 30 845 24.95 -2.3 27.8 39 -14.6 5.8
11:20 1016 30 845 24.95 -2 28.4 34 -15.7 3.7
11:25 1016 30 845 24.95 -1.9 28.5 36 -15.1 4.7
11:30 1016 30 845 24.95 -1.4 29.4 35 -15.2 4.7
11:35 1016 30 845 24.95 -1.2 29.8 32 -15.8 3.5
11:40 1016 30 845 24.95 -1 30.3 33 -15.4 4.2
11:45 1016 30 845 24.95 -0.9 30.4 32 -15.6 3.9
11:50 1016 30 845 24.95 -1.4 29.4 33 -15.9 3.5
11:55 1015 29.97 845 24.95 -1.7 28.9 36 -15 5.1
12:00 1015 29.97 845 24.95 -1.6 29.1 36 -14.9 5.3
12:05 1015 29.97 844 24.92 -1.1 30 33 -15.4 4.2
12:10 1015 29.97 844 24.92 -0.5 31 33 -15 4.9
12:15 1015 29.97 844 24.92 -0.5 31.2 34 -14.6 5.6
12:20 1015 29.97 844 24.92 -0.5 31.1 33 -15 5
12:25 1015 29.97 844 24.92 -0.9 30.4 33 -15.3 4.4
12:30 1015 29.97 844 24.92 -0.9 30.4 34 -15 5.1
12:35 1015 29.97 844 24.92 -0.7 30.7 36 -14.1 6.6
12:40 1015 29.97 844 24.92 -0.7 30.7 36 -14 6.9
12:45 1014 29.94 844 24.92 -0.8 30.5 36 -14.1 6.6
12:50 1014 29.94 843 24.89 -0.9 30.4 36 -14.1 6.7
12:55 1014 29.94 843 24.89 -1 30.3 37 -13.8 7.1
13:00 1014 29.94 843 24.89 -0.8 30.5 38 -13.6 7.6
13:05 1014 29.94 843 24.89 -0.7 30.7 38 -13.3 8
13:10 1014 29.94 843 24.89 -0.5 31.1 37 -13.4 7.8
13:15 1014 29.94 843 24.89 -0 31.9 36 -13.3 8
13:20 1014 29.94 843 24.89 0.2 32.3 37 -12.8 8.9
13:25 1014 29.94 843 24.89 0.4 32.7 35 -13.4 7.9
13:30 1013 29.91 843 24.89 0.5 33 36 -12.9 8.7
13:35 1013 29.91 843 24.89 0.8 33.4 36 -12.8 8.9
13:40 1013 29.91 842 24.86 1 33.8 35 -12.8 9
13:45 1013 29.91 842 24.86 1.1 33.9 34 -13.1 8.4
13:50 1013 29.91 842 24.86 1.1 33.9 34 -13.1 8.4
13:55 1013 29.91 842 24.86 0.7 33.2 37 -12.5 9.5
14:00 1013 29.91 842 24.86 0.5 32.9 36 -13.1 8.4
14:05 1013 29.91 842 24.86 0.5 32.8 38 -12.2 10
14:10 1013 29.91 842 24.86 0.2 32.4 36 -13.1 8.4
14:15 1012 29.88 842 24.86 0.5 32.9 35 -13.3 8.1
14:20 1012 29.88 842 24.86 0.5 32.9 37 -12.5 9.4
14:25 1012 29.88 841 24.83 0.7 33.2 37 -12.5 9.5
14:30 1012 29.88 841 24.83 0.7 33.3 36 -12.6 9.2
14:35 1012 29.88 841 24.83 0.7 33.3 38 -12.1 10.2
14:40 1012 29.88 841 24.83 0.9 33.6 34 -13.3 8.1
14:45 1012 29.88 841 24.83 1 33.7 36 -12.4 9.8
14:50 1012 29.88 841 24.83 0.9 33.6 36 -12.6 9.3
14:55 1012 29.88 841 24.83 1 33.7 38 -11.9 10.6
15:00 1012 29.88 841 24.83 0.9 33.6 38 -11.9 10.6
15:05 1012 29.88 841 24.83 0.8 33.4 38 -11.9 10.6
15:10 1012 29.88 841 24.83 0.7 33.3 37 -12.5 9.6
15:15 1011 29.85 841 24.83 0.8 33.5 38 -11.8 10.7
15:20 1011 29.85 841 24.83 0.7 33.3 37 -12.5 9.5
15:25 1011 29.85 840 24.81 0.7 33.2 38 -12 10.4
15:30 1011 29.85 840 24.81 0.5 32.8 38 -12.3 9.8
15:35 1011 29.85 840 24.81 0.4 32.7 39 -12.1 10.2
15:40 1011 29.85 840 24.81 0.4 32.7 39 -12 10.3
15:45 1011 29.85 840 24.81 0.4 32.7 40 -11.7 10.9
15:50 1011 29.85 840 24.81 0.4 32.8 39 -11.9 10.5
15:55 1011 29.85 840 24.81 0.5 32.8 40 -11.8 10.8
16:00 1011 29.85 840 24.81 0.5 32.9 38 -12.1 10.3
16:05 1011 29.85 840 24.81 0.5 32.8 39 -11.9 10.5
16:10 1011 29.85 840 24.81 0.5 32.9 40 -11.7 11
16:15 1011 29.85 840 24.81 0.5 32.8 40 -11.7 11
16:20 1011 29.85 840 24.81 0.4 32.8 41 -11.3 11.7
16:25 1011 29.85 840 24.81 0.5 32.9 41 -11.5 11.4
16:30 1011 29.85 840 24.81 0.4 32.8 43 -10.7 12.7
16:35 1011 29.85 840 24.81 0.4 32.7 43 -10.8 12.5
16:40 1011 29.85 840 24.81 0.5 32.8 43 -10.9 12.4
16:45 1011 29.85 840 24.81 0.5 32.8 43 -10.9 12.5
16:50 1011 29.85 840 24.81 0.4 32.7 45 -10.3 13.4
16:55 1011 29.85 840 24.81 0.4 32.7 45 -10.3 13.5
17:00 1010 29.83 840 24.81 0.4 32.7 45 -10.2 13.7
17:05 1010 29.83 840 24.81 0.3 32.6 47 -9.9 14.3
17:10 1010 29.83 840 24.81 0.3 32.5 45 -10.3 13.5
17:15 1010 29.83 840 24.81 0.2 32.4 47 -9.9 14.1
17:20 1010 29.83 840 24.81 0.1 32.2 49 -9.4 15.1
17:25 1010 29.83 840 24.81 0.1 32.1 48 -9.8 14.3
17:30 1010 29.83 840 24.81 0.1 32.2 47 -9.8 14.4
17:35 1010 29.83 840 24.81 0.1 32.3 49 -9.4 15
17:40 1010 29.83 840 24.81 0 32 51 -9 15.7
17:45 1010 29.83 840 24.81 -0.1 31.9 52 -8.8 16.2
17:50 1010 29.83 840 24.81 -0.1 31.8 52 -8.9 16
17:55 1010 29.83 840 24.81 -0.1 31.8 52 -8.7 16.3
18:00 1011 29.85 840 24.81 -0.1 31.8 53 -8.6 16.6
18:05 1011 29.85 840 24.81 -0.1 31.8 54 -8.4 16.9
18:10 1011 29.85 840 24.81 -0.1 31.9 52 -8.8 16.2
18:15 1010 29.83 840 24.81 0.2 32.3 52 -8.6 16.5
18:20 1010 29.83 840 24.81 0.2 32.3 52 -8.4 16.8
18:25 1010 29.83 840 24.81 0.2 32.4 51 -8.7 16.4
18:30 1010 29.83 840 24.81 0.3 32.5 52 -8.4 16.9
18:35 1010 29.83 840 24.81 0.2 32.3 54 -8.2 17.3
18:40 1010 29.83 840 24.81 0.1 32.1 55 -7.9 17.8
18:45 1010 29.83 840 24.81 -0 31.9 57 -7.5 18.4
18:50 1010 29.83 840 24.81 -0.2 31.6 58 -7.5 18.5
18:55 1010 29.83 840 24.81 -0.2 31.6 57 -7.7 18.2
19:00 1010 29.83 839 24.78 -0.3 31.5 58 -7.7 18.2
19:05 1010 29.83 839 24.78 -0.2 31.6 58 -7.6 18.4
19:10 1010 29.83 839 24.78 -0.3 31.5 58 -7.6 18.4
19:15 1010 29.83 839 24.78 -0.3 31.5 58 -7.6 18.3
19:20 1010 29.83 839 24.78 -0.3 31.5 57 -7.7 18.1
19:25 1010 29.83 839 24.78 -0.3 31.5 57 -7.7 18.2
19:30 1010 29.83 839 24.78 -0.3 31.4 60 -7.2 19
19:35 1010 29.83 839 24.78 -0.4 31.2 60 -7.2 19.1
19:40 1010 29.83 839 24.78 -0.6 31 62 -7 19.5
19:45 1010 29.83 839 24.78 -0.7 30.7 62 -7.1 19.2
19:50 1010 29.83 839 24.78 -0.7 30.7 62 -7 19.3
19:55 1010 29.83 839 24.78 -0.8 30.6 61 -7.4 18.8
20:00 1010 29.83 839 24.78 -0.6 30.9 59 -7.6 18.2
20:05 1010 29.83 839 24.78 -0.6 30.9 60 -7.3 18.8
20:10 1010 29.83 839 24.78 -0.6 30.8 60 -7.5 18.5
20:15 1010 29.83 839 24.78 -0.5 31.1 58 -7.8 17.9
20:20 1010 29.83 839 24.78 -0.4 31.3 59 -7.5 18.5
20:25 1010 29.83 839 24.78 -0.5 31.1 60 -7.3 18.8
20:30 1010 29.83 839 24.78 -0.5 31.1 59 -7.6 18.4
20:35 1010 29.83 839 24.78 -0.6 31 61 -7.1 19.2
20:40 1010 29.83 839 24.78 -0.7 30.8 61 -7.3 18.8
20:45 1010 29.83 840 24.81 -0.6 31 60 -7.5 18.5
20:50 1010 29.83 840 24.81 -0.4 31.2 58 -7.8 18
20:55 1011 29.85 840 24.81 -0.2 31.6 58 -7.4 18.6
21:00 1011 29.85 840 24.81 -0.3 31.5 58 -7.5 18.5
21:05 1011 29.85 840 24.81 -0.2 31.7 53 -8.5 16.7
21:10 1011 29.85 840 24.81 0.1 32.1 55 -7.8 17.9
21:15 1011 29.85 840 24.81 0.1 32.1 53 -8.4 16.8
21:20 1011 29.85 840 24.81 0 32 56 -7.6 18.3
21:25 1011 29.85 840 24.81 -0.2 31.6 55 -8.2 17.2
21:30 1011 29.85 840 24.81 -0.3 31.5 51 -9.1 15.6
21:35 1011 29.85 841 24.83 -0.4 31.3 53 -8.8 16.2
21:40 1011 29.85 841 24.83 -0.7 30.8 55 -8.6 16.5
21:45 1012 29.88 841 24.83 -0.9 30.4 59 -7.8 17.9
21:50 1012 29.88 841 24.83 -1.2 29.9 66 -6.7 19.9
21:55 1012 29.88 841 24.83 -1.6 29.2 71 -6.2 20.8
22:00 1012 29.88 841 24.83 -1.9 28.7 73 -6 21.1
22:05 1012 29.88 841 24.83 -2 28.4 75 -5.9 21.4
22:10 1012 29.88 841 24.83 -2.2 28.1 76 -5.9 21.4
22:15 1012 29.88 841 24.83 -2.3 27.9 77 -5.8 21.6
22:20 1012 29.88 841 24.83 -2.5 27.6 78 -5.8 21.6
22:25 1012 29.88 841 24.83 -2.5 27.4 79 -5.7 21.7
22:30 1012 29.88 841 24.83 -2.6 27.4 80 -5.6 21.9
22:35 1012 29.88 841 24.83 -2.6 27.3 80 -5.6 21.9
22:40 1012 29.88 841 24.83 -2.6 27.4 79 -5.7 21.7
22:45 1012 29.88 841 24.83 -2.5 27.6 77 -5.9 21.3
22:50 1012 29.88 841 24.83 -2.4 27.8 76 -6.1 21.1
22:55 1012 29.88 841 24.83 -2.3 27.9 75 -6.1 21.1
23:00 1012 29.88 841 24.83 -2.1 28.1 73 -6.3 20.6
23:05 1012 29.88 841 24.83 -2 28.5 71 -6.6 20.1
23:10 1012 29.88 841 24.83 -1.8 28.8 69 -6.6 20
23:15 1012 29.88 841 24.83 -1.7 29 68 -6.8 19.7
23:20 1012 29.88 841 24.83 -1.6 29.1 67 -6.9 19.7
23:25 1012 29.88 841 24.83 -1.6 29.1 67 -6.9 19.5
23:30 1012 29.88 841 24.83 -1.6 29.1 67 -6.9 19.6
23:35 1012 29.88 841 24.83 -1.6 29.1 67 -6.9 19.6
23:40 1012 29.88 841 24.83 -1.7 29 68 -6.9 19.6
23:45 1012 29.88 841 24.83 -1.7 28.9 67 -7 19.4
23:50 1012 29.88 841 24.83 -1.8 28.8 69 -6.8 19.7
23:55 1012 29.88 841 24.83 -1.9 28.5 70 -6.8 19.8
24:00 1012 29.88 841 24.83 -2.1 28.2 70 -6.9 19.7